首页
METAR-TAF:

METAR-TAF

机场 :

奧雷亞納省弗朗西斯科港, 厄瓜多尔

纬度: 00-27-46S, 经度: 076-59-12W, 海拔: 254米

当前天气观测

该预报发布于4小时和15分钟前的22:00 UTC
风速5节,风向南转南东
温度 31°C
湿度 75%
气压 1009 hPa
能见度10公里或以上
散云层高于2600英尺
多云层高于10000英尺

METAR: SECO 242200Z 16005KT 9999 SCT026 BKN100 31/26 Q1009 RMK A2981

时间: 21:15 (02:15 UTC)


TAF: 丢失

超过4000个机场的气象观测和天气预报(METAR&TAF报告)。

可查询的气象台以黄色和红色小点在地图上表示。

将鼠标移到小点上方,可查看气象台名称。

然后点击查看天气观测和预报。

如需切换地图:点击带黑十字的绿色按钮放大地图;点击带横线的绿色按钮缩小地图;或者点击绿色箭头查看邻近地区的地图。


METAR-TAF: